Time;durP1;ratioP1;P1;durP2;ratioP2;P2;SDS_P1;SDS_P2;PMS_P1;PMS_P2;Temp;Humidity;BMP_temperature;BMP_pressure;BME280_temperature;BME280_humidity;BME280_pressure;Samples;Min_cycle;Max_cycle;Signal;HPM_P1;HPM_P2
2022/11/09 00:01:48;;;;;;;7.78;2.45;;;;;;;14.22;100.00;100520.72;5164228;28;20104;-73
2022/11/09 00:04:19;;;;;;;11.40;2.20;;;;;;;14.23;100.00;100508.06;5164311;28;20042;-73
2022/11/09 00:06:51;;;;;;;4.43;2.30;;;;;;;14.23;100.00;100505.38;5164212;28;20504;-73
2022/11/09 00:09:22;;;;;;;11.70;2.33;;;;;;;14.23;100.00;100513.47;5163922;28;20026;-73
2022/11/09 00:11:53;;;;;;;13.23;2.45;;;;;;;14.27;100.00;100513.91;5164385;28;20117;-75
2022/11/09 00:14:24;;;;;;;4.82;1.88;;;;;;;14.24;100.00;100517.81;5164172;28;20456;-73
2022/11/09 00:16:55;;;;;;;9.10;2.40;;;;;;;14.20;100.00;100522.78;5163610;28;20110;-73
2022/11/09 00:19:26;;;;;;;7.85;1.77;;;;;;;14.14;100.00;100510.09;5163941;28;20394;-73
2022/11/09 00:21:56;;;;;;;8.18;1.90;;;;;;;14.12;100.00;100512.16;5163659;28;20022;-73
2022/11/09 00:24:27;;;;;;;8.18;1.90;;;;;;;14.10;100.00;100507.97;5164736;28;20027;-73
2022/11/09 00:26:57;;;;;;;8.93;1.80;;;;;;;14.08;100.00;100502.78;5154227;28;20030;-73
2022/11/09 00:29:27;;;;;;;11.88;2.30;;;;;;;14.14;100.00;100499.28;5158860;28;20030;-74
2022/11/09 00:31:58;;;;;;;8.10;1.85;;;;;;;14.16;100.00;100497.25;5155349;28;20027;-74
2022/11/09 00:34:28;;;;;;;8.35;1.98;;;;;;;14.09;100.00;100509.84;5160438;28;20034;-73
2022/11/09 00:36:59;;;;;;;3.78;1.80;;;;;;;14.08;100.00;100513.56;5163361;28;20023;-73
2022/11/09 00:39:29;;;;;;;8.57;2.20;;;;;;;14.06;100.00;100509.44;5163437;28;20085;-74
2022/11/09 00:42:00;;;;;;;8.73;1.73;;;;;;;14.08;100.00;100510.88;5164152;28;20022;-73
2022/11/09 00:44:30;;;;;;;6.47;1.50;;;;;;;14.10;100.00;100508.81;5163955;28;20439;-74
2022/11/09 00:47:01;;;;;;;11.95;2.28;;;;;;;14.12;100.00;100511.31;5162524;28;20421;-73
2022/11/09 00:49:31;;;;;;;4.78;1.40;;;;;;;14.13;100.00;100510.28;5163517;28;20389;-75
2022/11/09 00:52:01;;;;;;;10.52;1.70;;;;;;;14.12;100.00;100509.47;5163440;28;20057;-74
2022/11/09 00:54:32;;;;;;;5.82;1.95;;;;;;;14.11;100.00;100510.50;5163597;28;20034;-74
2022/11/09 00:57:02;;;;;;;12.57;1.40;;;;;;;14.11;100.00;100510.50;5162972;28;20401;-74
2022/11/09 00:59:33;;;;;;;9.63;2.30;;;;;;;14.10;100.00;100508.81;5163158;28;20125;-73
2022/11/09 01:02:03;;;;;;;10.25;2.00;;;;;;;14.11;100.00;100510.50;5163109;28;20456;-74
2022/11/09 01:04:34;;;;;;;9.25;1.95;;;;;;;14.09;100.00;100507.16;5163423;28;20033;-73
2022/11/09 01:07:07;;;;;;;7.68;1.50;;;;;;;14.05;100.00;100513.13;5162863;28;20045;-74
2022/11/09 01:09:37;;;;;;;14.23;2.15;;;;;;;14.02;100.00;100516.25;5162933;28;20034;-73
2022/11/09 01:12:08;;;;;;;10.30;1.90;;;;;;;13.97;100.00;100525.75;5163083;28;20034;-74
2022/11/09 01:14:38;;;;;;;11.27;1.60;;;;;;;13.96;100.00;100525.94;5163052;28;20019;-74
2022/11/09 01:17:09;;;;;;;16.48;1.90;;;;;;;13.88;100.00;100531.47;5163009;28;20453;-73
2022/11/09 01:19:39;;;;;;;8.52;1.70;;;;;;;13.79;100.00;100521.84;5163090;28;20026;-73
2022/11/09 01:22:10;;;;;;;8.90;1.67;;;;;;;13.72;100.00;100528.03;5162933;28;20053;-75
2022/11/09 01:24:40;;;;;;;10.43;1.92;;;;;;;13.70;100.00;100524.72;5164596;28;20036;-72
2022/11/09 01:27:12;;;;;;;16.55;2.25;;;;;;;13.64;100.00;100522.78;5161227;28;20022;-72
2022/11/09 01:29:42;;;;;;;10.85;2.10;;;;;;;13.62;100.00;100527.53;5160866;28;20041;-73
2022/11/09 01:32:13;;;;;;;10.60;2.22;;;;;;;13.62;100.00;100535.63;5162837;28;20026;-73
2022/11/09 01:34:43;;;;;;;8.07;2.00;;;;;;;13.59;100.00;100540.56;5167038;28;20058;-73
2022/11/09 01:37:14;;;;;;;8.23;1.73;;;;;;;13.54;100.00;100538.44;5167017;28;20046;-73
2022/11/09 01:39:44;;;;;;;13.07;2.28;;;;;;;13.56;100.00;100544.50;5167310;28;20027;-73
2022/11/09 01:42:22;;;;;;;6.88;1.63;;;;;;;13.53;100.00;100539.47;5167173;28;20037;-73
2022/11/09 01:45:17;;;;;;;13.77;2.40;;;;;;;13.50;100.00;100537.16;5167016;28;20022;-72
2022/11/09 01:48:09;;;;;;;14.82;1.70;;;;;;;13.49;100.00;100548.97;5166408;28;20514;-72
2022/11/09 01:50:49;;;;;;;8.02;2.00;;;;;;;13.56;100.00;100547.19;5167052;28;20109;-73
2022/11/09 01:53:24;;;;;;;8.25;1.98;;;;;;;13.62;100.00;100532.09;5166730;28;20077;-73
2022/11/09 01:55:59;;;;;;;11.68;1.75;;;;;;;13.58;100.00;100545.13;5166860;28;20022;-73
2022/11/09 01:58:36;;;;;;;8.15;1.73;;;;;;;13.58;100.00;100546.97;5166226;28;20053;-73
2022/11/09 02:01:09;;;;;;;11.32;2.30;;;;;;;13.55;100.00;100552.75;5167055;28;20046;-73
2022/11/09 02:03:47;;;;;;;14.23;2.28;;;;;;;13.55;100.00;100564.34;5166828;28;20097;-73
2022/11/09 02:06:20;;;;;;;6.88;2.28;;;;;;;13.53;100.00;100554.81;5166877;28;20033;-73
2022/11/09 02:08:59;;;;;;;9.48;2.28;;;;;;;13.49;100.00;100557.03;5166528;28;20022;-73
2022/11/09 02:11:30;;;;;;;13.32;2.13;;;;;;;13.47;100.00;100540.25;5166906;28;20044;-72
2022/11/09 02:14:02;;;;;;;14.25;2.50;;;;;;;13.46;100.00;100552.91;5165398;28;20030;-73
2022/11/09 02:16:42;;;;;;;12.88;3.00;;;;;;;13.48;100.00;100540.03;5166527;28;20053;-73
2022/11/09 02:19:18;;;;;;;15.88;2.42;;;;;;;13.55;100.00;100541.97;5167118;28;20030;-73
2022/11/09 02:22:02;;;;;;;7.50;1.88;;;;;;;13.55;100.00;100529.31;5155706;28;20019;-73
2022/11/09 02:24:50;;;;;;;11.45;1.92;;;;;;;13.53;100.00;100522.47;5169422;28;20027;-74
2022/11/09 02:27:21;;;;;;;9.95;2.75;;;;;;;13.47;100.00;100513.31;5162425;28;20022;-73
2022/11/09 02:29:52;;;;;;;13.85;2.30;;;;;;;13.46;100.00;100493.59;5165865;28;20036;-73
2022/11/09 02:32:24;;;;;;;20.98;3.00;;;;;;;13.40;100.00;100493.53;5155379;28;20026;-73
2022/11/09 02:34:55;;;;;;;12.50;2.35;;;;;;;13.33;100.00;100524.97;5166325;28;20018;-73
2022/11/09 02:37:48;;;;;;;11.73;2.47;;;;;;;13.26;100.00;100532.16;5165424;28;20509;-73
2022/11/09 02:40:28;;;;;;;11.48;2.20;;;;;;;13.19;100.00;100532.88;5166189;28;20023;-73
2022/11/09 02:43:00;;;;;;;14.05;2.20;;;;;;;13.20;100.00;100539.97;5165102;28;20084;-73
2022/11/09 02:45:31;;;;;;;11.20;2.03;;;;;;;13.22;100.00;100534.41;5165375;28;20377;-73
2022/11/09 02:48:02;;;;;;;13.32;2.45;;;;;;;13.20;100.00;100534.56;5165609;28;20026;-72
2022/11/09 02:50:33;;;;;;;10.57;2.05;;;;;;;13.18;100.00;100535.75;5165971;28;20022;-73
2022/11/09 02:53:15;;;;;;;13.10;2.40;;;;;;;13.18;100.00;100538.47;5165953;28;20498;-72
2022/11/09 02:55:46;;;;;;;13.15;1.85;;;;;;;13.14;100.00;100539.84;5166035;28;20316;-73
2022/11/09 02:58:19;;;;;;;11.80;2.92;;;;;;;13.15;100.00;100545.09;5164966;28;20037;-73
2022/11/09 03:00:50;;;;;;;15.35;2.60;;;;;;;13.17;100.00;100548.41;5165899;28;20385;-72
2022/11/09 03:03:20;;;;;;;8.25;2.30;;;;;;;13.18;100.00;100552.75;5164425;28;20161;-73
2022/11/09 03:05:51;;;;;;;12.32;2.30;;;;;;;13.16;100.00;100544.03;5165787;28;20022;-73
2022/11/09 03:08:21;;;;;;;12.43;2.58;;;;;;;13.19;100.00;100542.81;5164899;28;20056;-73
2022/11/09 03:10:52;;;;;;;14.55;2.30;;;;;;;13.19;100.00;100551.72;5165766;28;20026;-73
2022/11/09 03:13:23;;;;;;;10.10;2.38;;;;;;;13.20;100.00;100550.72;5165270;28;20037;-72
2022/11/09 03:15:53;;;;;;;12.10;2.42;;;;;;;13.18;100.00;100560.84;5165453;28;20038;-73
2022/11/09 03:18:24;;;;;;;15.45;2.58;;;;;;;13.12;100.00;100558.91;5164990;28;20022;-72
2022/11/09 03:21:00;;;;;;;14.48;2.63;;;;;;;13.08;100.00;100560.31;5165158;28;20149;-74
2022/11/09 03:23:31;;;;;;;12.68;2.40;;;;;;;13.04;100.00;100561.72;5152871;28;20019;-73
2022/11/09 03:26:01;;;;;;;15.85;2.83;;;;;;;12.98;100.00;100561.63;5173878;28;20025;-73
2022/11/09 03:28:32;;;;;;;16.70;3.63;;;;;;;12.91;100.00;100573.16;5153566;28;20025;-73
2022/11/09 03:31:02;;;;;;;17.75;2.20;;;;;;;12.86;100.00;100578.28;5179502;28;20019;-74
2022/11/09 03:33:33;;;;;;;9.73;2.28;;;;;;;12.81;100.00;100577.19;5154592;28;20030;-74
2022/11/09 03:36:04;;;;;;;11.45;2.33;;;;;;;12.80;100.00;100583.56;5164112;28;20037;-73
2022/11/09 03:38:35;;;;;;;13.48;2.42;;;;;;;12.79;100.00;100593.50;5164817;28;20029;-74
2022/11/09 03:41:05;;;;;;;12.88;2.28;;;;;;;12.79;100.00;100598.03;5164935;28;20018;-74
2022/11/09 03:43:36;;;;;;;14.02;2.47;;;;;;;12.79;100.00;100589.97;5164888;28;20026;-74
2022/11/09 03:46:06;;;;;;;10.73;2.10;;;;;;;12.74;100.00;100585.16;5164435;28;20021;-74
2022/11/09 03:48:37;;;;;;;15.88;2.28;;;;;;;12.72;100.00;100592.59;5164253;28;20033;-74
2022/11/09 03:51:07;;;;;;;12.60;2.08;;;;;;;12.69;100.00;100604.53;5165055;28;20149;-74
2022/11/09 03:53:38;;;;;;;10.75;2.10;;;;;;;12.72;100.00;100599.81;5179807;28;20057;-74
2022/11/09 03:56:08;;;;;;;9.50;2.08;;;;;;;12.69;100.00;100601.03;5164150;28;20490;-74
2022/11/09 03:58:39;;;;;;;21.77;2.67;;;;;;;12.67;100.00;100597.69;5164086;28;20373;-73
2022/11/09 04:01:09;;;;;;;16.20;2.38;;;;;;;12.63;100.00;100604.47;5164922;28;20030;-73
2022/11/09 04:03:40;;;;;;;17.13;2.75;;;;;;;12.59;100.00;100606.69;5164393;28;20018;-73
2022/11/09 04:06:10;;;;;;;13.35;2.22;;;;;;;12.57;100.00;100608.72;5164635;28;20527;-73
2022/11/09 04:08:41;;;;;;;19.25;2.40;;;;;;;12.54;100.00;100614.47;5163824;28;20026;-74
2022/11/09 04:11:11;;;;;;;9.23;1.95;;;;;;;12.57;100.00;100611.41;5163937;28;20121;-73
2022/11/09 04:13:42;;;;;;;17.40;2.63;;;;;;;12.53;100.00;100617.34;5164405;28;20049;-73
2022/11/09 04:16:12;;;;;;;15.13;2.28;;;;;;;12.49;100.00;100621.44;5164422;28;20069;-73
2022/11/09 04:18:43;;;;;;;12.48;2.20;;;;;;;12.53;100.00;100617.34;5163896;28;20061;-74
2022/11/09 04:21:13;;;;;;;11.65;1.90;;;;;;;12.52;100.00;100629.97;5164205;28;20379;-74
2022/11/09 04:23:44;;;;;;;13.93;2.63;;;;;;;12.49;100.00;100619.56;5164345;28;20030;-74
2022/11/09 04:26:14;;;;;;;15.52;2.40;;;;;;;12.49;100.00;100624.94;5160447;28;20105;-74
2022/11/09 04:28:45;;;;;;;9.52;2.00;;;;;;;12.45;100.00;100629.06;5153751;28;20033;-74
2022/11/09 04:31:15;;;;;;;8.45;2.20;;;;;;;12.40;100.00;100636.84;5161249;28;20478;-73
2022/11/09 04:34:14;;;;;;;10.68;2.30;;;;;;;12.38;100.00;100637.00;5155927;28;20037;-73
2022/11/09 04:36:44;;;;;;;11.30;1.85;;;;;;;12.34;100.00;100640.25;5163729;28;20109;-73
2022/11/09 04:39:15;;;;;;;11.20;2.28;;;;;;;12.29;100.00;100630.03;5163343;28;20105;-76
2022/11/09 04:41:45;;;;;;;17.80;2.28;;;;;;;12.24;100.00;100639.66;5164272;28;20037;-74
2022/11/09 04:44:15;;;;;;;8.07;2.10;;;;;;;12.19;100.00;100641.03;5163579;28;20037;-74
2022/11/09 04:46:46;;;;;;;15.23;3.13;;;;;;;12.13;100.00;100639.06;5163335;28;20032;-73
2022/11/09 04:49:16;;;;;;;20.75;2.88;;;;;;;12.14;100.00;100639.91;5163363;28;20069;-73
2022/11/09 04:51:47;;;;;;;12.05;2.28;;;;;;;12.07;100.00;100647.88;5163660;28;20027;-74
2022/11/09 04:54:17;;;;;;;9.05;1.73;;;;;;;12.01;100.00;100653.16;5163462;28;20030;-73
2022/11/09 04:56:48;;;;;;;9.35;2.10;;;;;;;11.97;100.00;100654.53;5162947;28;20414;-72
2022/11/09 04:59:18;;;;;;;13.43;2.17;;;;;;;11.92;100.00;100647.00;5163411;28;20022;-72
2022/11/09 05:01:49;;;;;;;10.27;1.88;;;;;;;11.88;100.00;100641.13;5162418;28;20496;-73
2022/11/09 05:04:19;;;;;;;16.98;2.78;;;;;;;11.91;100.00;100639.94;5163540;28;20578;-73
2022/11/09 05:06:50;;;;;;;16.67;2.40;;;;;;;11.94;100.00;100644.94;5163284;28;20034;-73
2022/11/09 05:09:20;;;;;;;7.97;2.22;;;;;;;11.86;100.00;100645.03;5178141;28;20073;-73
2022/11/09 05:11:51;;;;;;;13.48;2.65;;;;;;;11.80;100.00;100645.72;5178691;28;20049;-73
2022/11/09 05:14:21;;;;;;;14.32;2.55;;;;;;;11.76;100.00;100647.91;5163453;28;20504;-74
2022/11/09 05:16:52;;;;;;;16.88;2.65;;;;;;;11.71;100.00;100650.31;5162876;28;20053;-73
2022/11/09 05:19:22;;;;;;;13.85;2.25;;;;;;;11.73;100.00;100647.44;5163903;28;20088;-73
2022/11/09 05:21:52;;;;;;;8.93;1.88;;;;;;;11.71;100.00;100649.47;5162935;28;20390;-73
2022/11/09 05:24:23;;;;;;;12.38;2.10;;;;;;;11.73;100.00;100645.56;5165111;28;20089;-73
2022/11/09 05:26:54;;;;;;;22.75;2.97;;;;;;;11.76;100.00;100644.41;5155315;28;20030;-74
2022/11/09 05:29:25;;;;;;;13.15;2.15;;;;;;;11.77;100.00;100646.06;5158825;28;20401;-74
2022/11/09 05:31:55;;;;;;;8.38;1.92;;;;;;;11.77;100.00;100644.22;5155325;28;20065;-73
2022/11/09 05:34:26;;;;;;;14.18;2.10;;;;;;;11.79;100.00;100646.72;5159655;28;20018;-73
2022/11/09 05:36:56;;;;;;;7.28;2.10;;;;;;;11.74;100.00;100647.25;5162865;28;20037;-74
2022/11/09 05:39:26;;;;;;;13.73;2.20;;;;;;;11.74;100.00;100644.56;5162953;28;20022;-73
2022/11/09 05:41:57;;;;;;;24.58;2.72;;;;;;;11.71;100.00;100644.09;5163280;28;20109;-74
2022/11/09 05:44:27;;;;;;;8.45;2.03;;;;;;;11.68;100.00;100639.91;5163298;28;20037;-75
2022/11/09 05:46:58;;;;;;;12.80;2.20;;;;;;;11.64;100.00;100650.16;5161922;28;20451;-75
2022/11/09 05:49:28;;;;;;;10.23;2.28;;;;;;;11.59;100.00;100649.84;5163083;28;20035;-73
2022/11/09 05:51:59;;;;;;;14.02;2.05;;;;;;;11.64;100.00;100655.53;5163111;28;20057;-75
2022/11/09 05:54:29;;;;;;;22.48;3.38;;;;;;;11.66;100.00;100658.91;5162922;28;20027;-74
2022/11/09 05:57:00;;;;;;;10.00;2.28;;;;;;;11.61;100.00;100647.03;5162580;28;20045;-74
2022/11/09 05:59:31;;;;;;;12.77;2.25;;;;;;;11.59;100.00;100646.34;5162695;28;20496;-74
2022/11/09 06:02:02;;;;;;;10.02;2.58;;;;;;;11.64;100.00;100649.31;5163290;28;20034;-73
2022/11/09 06:04:32;;;;;;;9.27;2.58;;;;;;;11.59;100.00;100655.22;5163005;28;20025;-74
2022/11/09 06:07:02;;;;;;;13.30;2.10;;;;;;;11.55;100.00;100655.78;5161346;28;20030;-73
2022/11/09 06:09:33;;;;;;;14.38;2.42;;;;;;;11.51;100.00;100658.00;5162877;28;20106;-73
2022/11/09 06:12:04;;;;;;;9.90;2.00;;;;;;;11.49;100.00;100653.78;5162519;28;20095;-73
2022/11/09 06:14:34;;;;;;;11.23;1.95;;;;;;;11.45;100.00;100655.19;5162702;28;20023;-73
2022/11/09 06:17:05;;;;;;;13.65;2.33;;;;;;;11.45;100.00;100661.38;5162217;28;20030;-73
2022/11/09 06:19:35;;;;;;;12.82;2.47;;;;;;;11.43;100.00;100663.41;5164324;28;20050;-73
2022/11/09 06:22:05;;;;;;;15.82;2.15;;;;;;;11.44;100.00;100659.69;5166303;28;20118;-73
2022/11/09 06:24:36;;;;;;;14.20;1.95;;;;;;;11.46;100.00;100678.34;5167563;28;20128;-74
2022/11/09 06:27:06;;;;;;;13.98;2.05;;;;;;;11.45;100.00;100669.44;5176233;28;20076;-73
2022/11/09 06:29:37;;;;;;;15.57;2.65;;;;;;;11.42;100.00;100672.47;5166270;28;20105;-73
2022/11/09 06:32:07;;;;;;;11.70;2.63;;;;;;;11.41;100.00;100681.56;5156890;28;20345;-73
2022/11/09 06:34:38;;;;;;;14.25;2.15;;;;;;;11.37;100.00;100678.38;5180137;28;20058;-73
2022/11/09 06:37:08;;;;;;;12.32;2.75;;;;;;;11.30;100.00;100680.09;5166119;28;20026;-73
2022/11/09 06:39:39;;;;;;;12.85;2.22;;;;;;;11.28;100.00;100678.59;5166342;28;20072;-73
2022/11/09 06:42:09;;;;;;;15.98;2.60;;;;;;;11.30;100.00;100682.78;5181463;28;20393;-73
2022/11/09 06:44:40;;;;;;;17.85;2.58;;;;;;;11.28;100.00;100682.09;5166110;28;20101;-73
2022/11/09 06:47:10;;;;;;;8.77;1.95;;;;;;;11.33;100.00;100695.00;5164873;28;20025;-73
2022/11/09 06:49:41;;;;;;;15.13;2.45;;;;;;;11.37;100.00;100690.97;5164744;28;20054;-73
2022/11/09 06:52:11;;;;;;;14.40;2.55;;;;;;;11.34;100.00;100692.13;5165724;28;20046;-73
2022/11/09 06:54:42;;;;;;;13.38;2.20;;;;;;;11.31;100.00;100687.13;5165689;28;20033;-73
2022/11/09 06:57:12;;;;;;;18.42;2.58;;;;;;;11.31;100.00;100694.34;5165438;28;20030;-73
2022/11/09 06:59:43;;;;;;;16.73;2.65;;;;;;;11.25;100.00;100692.38;5165278;28;20386;-74
2022/11/09 07:02:18;;;;;;;19.48;2.60;;;;;;;11.20;100.00;100694.75;5165738;28;20073;-73
2022/11/09 07:04:51;;;;;;;;;;;;;;;11.23;100.00;100705.13;5144350;28;20098;-73
2022/11/09 07:07:23;;;;;;;15.70;2.72;;;;;;;11.26;100.00;100702.94;5151897;28;19949;-73
2022/11/09 07:09:54;;;;;;;11.27;2.33;;;;;;;11.28;100.00;100708.94;5164110;28;20367;-73
2022/11/09 07:12:25;;;;;;;19.58;2.67;;;;;;;11.33;100.00;100713.81;5163044;28;20109;-73
2022/11/09 07:14:55;;;;;;;11.23;2.30;;;;;;;11.43;100.00;100716.28;5163054;28;20045;-73
2022/11/09 07:17:29;;;;;;;11.50;2.30;;;;;;;11.48;100.00;100720.13;5162598;28;20023;-73
2022/11/09 07:20:00;;;;;;;16.80;2.88;;;;;;;11.53;100.00;100715.06;5162809;28;20027;-73
2022/11/09 07:22:30;;;;;;;13.15;2.50;;;;;;;11.59;100.00;100706.28;5162911;28;20033;-73
2022/11/09 07:25:01;;;;;;;11.85;2.22;;;;;;;11.63;100.00;100712.97;5166172;28;20040;-73
2022/11/09 07:27:31;;;;;;;13.25;2.20;;;;;;;11.64;100.00;100709.28;5155333;28;20019;-73
2022/11/09 07:30:03;;;;;;;8.38;2.22;;;;;;;11.61;100.00;100712.34;5162576;28;20101;-73
2022/11/09 07:32:37;;;;;;;14.07;2.55;;;;;;;11.68;100.00;100710.59;5166079;28;20558;-73
2022/11/09 07:35:08;;;;;;;17.42;2.38;;;;;;;11.74;100.00;100703.69;5162463;28;20101;-73
2022/11/09 07:37:39;;;;;;;12.73;1.98;;;;;;;11.92;100.00;100711.50;5162295;28;20389;-73
2022/11/09 07:40:09;;;;;;;12.73;2.10;;;;;;;12.07;100.00;100712.41;5161931;28;20026;-73
2022/11/09 07:42:40;;;;;;;13.20;2.22;;;;;;;12.18;100.00;100714.66;5162772;28;20486;-73
2022/11/09 07:45:11;;;;;;;19.52;2.90;;;;;;;12.25;100.00;100717.50;5162808;28;20010;-73
2022/11/09 07:47:41;;;;;;;11.00;2.67;;;;;;;12.34;100.00;100720.94;5161543;28;20037;-72
2022/11/09 07:50:11;;;;;;;12.85;3.25;;;;;;;12.29;100.00;100720.63;5163009;28;20104;-73
2022/11/09 07:52:42;;;;;;;13.52;3.22;;;;;;;12.28;100.00;100735.13;5162340;28;20026;-73
2022/11/09 07:55:12;;;;;;;9.20;2.35;;;;;;;12.40;100.00;100736.38;5162672;28;20019;-73
2022/11/09 07:57:43;;;;;;;9.85;2.33;;;;;;;12.41;100.00;100735.34;5162309;28;20033;-73
2022/11/09 08:00:14;;;;;;;12.73;2.55;;;;;;;12.62;100.00;100746.25;5162423;28;20069;-73
2022/11/09 08:02:48;;;;;;;32.75;10.18;;;;;;;12.66;100.00;100741.38;5162116;28;20030;-73
2022/11/09 08:05:18;;;;;;;12.30;2.78;;;;;;;12.65;100.00;100737.84;5162179;28;20065;-73
2022/11/09 08:08:00;;;;;;;13.57;2.22;;;;;;;12.61;100.00;100754.53;5161882;28;20517;-73
2022/11/09 08:10:33;;;;;;;11.20;2.40;;;;;;;12.63;100.00;100753.31;5162031;28;20033;-73
2022/11/09 08:13:12;;;;;;;9.90;1.83;;;;;;;12.78;100.00;100739.88;5162087;28;20026;-73
2022/11/09 08:15:43;;;;;;;8.65;2.50;;;;;;;12.82;100.00;100754.66;5162580;28;20076;-73
2022/11/09 08:18:16;;;;;;;9.50;2.38;;;;;;;12.95;100.00;100748.63;5161621;28;20302;-73
2022/11/09 08:20:48;;;;;;;14.38;2.75;;;;;;;13.19;100.00;100759.13;5162125;28;20026;-73
2022/11/09 08:23:20;;;;;;;19.42;2.50;;;;;;;13.23;100.00;100758.81;5161149;28;20533;-73
2022/11/09 08:25:50;;;;;;;12.43;2.13;;;;;;;13.41;100.00;100768.19;5162032;28;20141;-73
2022/11/09 08:28:21;;;;;;;13.07;3.03;;;;;;;13.46;100.00;100759.56;5161509;28;20105;-73
2022/11/09 08:30:57;;;;;;;15.07;2.40;;;;;;;13.64;100.00;100762.69;5161856;28;20034;-73
2022/11/09 08:33:30;;;;;;;12.77;3.25;;;;;;;13.78;100.00;100766.38;5150613;28;20109;-73
2022/11/09 08:36:00;;;;;;;7.00;2.30;;;;;;;13.84;100.00;100762.91;5161924;28;20576;-73
2022/11/09 08:38:32;;;;;;;14.35;2.55;;;;;;;13.89;100.00;100771.28;5161623;28;20113;-73
2022/11/09 08:41:02;;;;;;;9.63;2.30;;;;;;;14.34;100.00;100779.22;5162090;28;20026;-73
2022/11/09 08:43:33;;;;;;;16.13;2.03;;;;;;;14.38;100.00;100778.66;5161493;28;20026;-73
2022/11/09 08:46:04;;;;;;;7.22;1.80;;;;;;;14.54;100.00;100774.06;5176364;28;20037;-73
2022/11/09 08:48:34;;;;;;;10.05;1.95;;;;;;;14.53;100.00;100775.09;5160962;28;20037;-73
2022/11/09 08:51:05;;;;;;;7.97;2.05;;;;;;;14.81;100.00;100772.41;5161754;28;20030;-73
2022/11/09 08:53:35;;;;;;;9.88;2.22;;;;;;;14.96;100.00;100784.81;5160128;28;20457;-74
2022/11/09 08:56:07;;;;;;;11.35;2.45;;;;;;;14.50;100.00;100782.53;5161693;28;20023;-73
2022/11/09 08:58:38;;;;;;;12.02;2.83;;;;;;;14.50;100.00;100781.69;5160511;28;20532;-74
2022/11/09 09:01:08;;;;;;;16.15;2.40;;;;;;;14.50;100.00;100773.59;5160520;28;20018;-73
2022/11/09 09:03:39;;;;;;;7.85;2.00;;;;;;;14.62;100.00;100777.47;5159982;28;20160;-73
2022/11/09 09:06:09;;;;;;;14.63;1.75;;;;;;;14.50;100.00;100781.69;5161388;28;20125;-73
2022/11/09 09:08:40;;;;;;;7.57;1.70;;;;;;;14.19;100.00;100777.41;5161111;28;20130;-74
2022/11/09 09:11:11;;;;;;;13.15;1.85;;;;;;;14.09;100.00;100776.91;5161657;28;20086;-74
2022/11/09 09:13:42;;;;;;;9.57;1.95;;;;;;;14.32;100.00;100797.50;5148474;28;20502;-73
2022/11/09 09:16:14;;;;;;;18.10;2.00;;;;;;;14.84;100.00;100789.06;5161193;28;20022;-73
2022/11/09 09:18:47;;;;;;;13.18;2.88;;;;;;;15.00;100.00;100787.94;5161131;28;20037;-73
2022/11/09 09:21:18;;;;;;;11.85;1.80;;;;;;;15.05;100.00;100781.94;5161121;28;20035;-74
2022/11/09 09:23:49;;;;;;;15.25;2.13;;;;;;;14.80;100.00;100789.63;5161248;28;20474;-73
2022/11/09 09:26:21;;;;;;;11.00;1.90;;;;;;;15.06;100.00;100806.06;5161219;28;20030;-73
2022/11/09 09:28:51;;;;;;;15.52;2.58;;;;;;;14.69;100.00;100794.53;5159522;28;20060;-73
2022/11/09 09:31:22;;;;;;;14.50;2.72;;;;;;;14.50;100.00;100803.28;5158172;28;20553;-74
2022/11/09 09:33:52;;;;;;;13.60;2.05;;;;;;;14.46;100.00;100804.69;5153378;28;20413;-74
2022/11/09 09:36:23;;;;;;;6.60;1.50;;;;;;;14.05;100.00;100799.88;5161776;28;20367;-73
2022/11/09 09:38:54;;;;;;;6.43;1.67;;;;;;;14.12;100.00;100800.81;5161040;28;20188;-74
2022/11/09 09:41:53;;;;;;;10.10;2.38;;;;;;;14.15;100.00;100805.81;5149316;28;20084;-73
2022/11/09 09:44:39;;;;;;;15.80;3.10;;;;;;;14.64;100.00;100812.34;5159818;28;20043;-74
2022/11/09 09:47:16;;;;;;;13.95;2.33;;;;;;;14.66;100.00;100811.16;5175327;28;20026;-73
2022/11/09 09:49:54;;;;;;;12.55;2.10;;;;;;;14.61;100.00;100824.41;5161125;28;20105;-74
2022/11/09 09:52:24;;;;;;;8.50;2.20;;;;;;;14.52;100.00;100816.63;5160855;28;20614;-73
2022/11/09 09:55:08;;;;;;;10.88;2.45;;;;;;;14.35;100.00;100829.47;5161666;28;20038;-74
2022/11/09 09:57:42;;;;;;;11.60;2.55;;;;;;;14.56;100.00;100834.94;5164522;28;20424;-74
2022/11/09 10:00:23;;;;;;;10.75;1.77;;;;;;;14.56;100.00;100834.94;5165102;28;20114;-74
2022/11/09 10:02:54;;;;;;;8.85;1.65;;;;;;;14.50;100.00;100833.81;5165054;28;20022;-74
2022/11/09 10:05:36;;;;;;;12.30;2.17;;;;;;;14.59;100.00;100845.34;5163249;28;20080;-74
2022/11/09 10:08:15;;;;;;;18.27;1.85;;;;;;;14.76;100.00;100843.22;5164208;28;20030;-74
2022/11/09 10:11:11;;;;;;;15.48;2.45;;;;;;;14.64;100.00;100847.47;5153303;28;20053;-75
2022/11/09 10:14:12;;;;;;;9.10;2.35;;;;;;;14.44;100.00;100855.31;5163829;28;20034;-74
2022/11/09 10:16:58;;;;;;;8.60;2.15;;;;;;;14.24;100.00;100853.22;5164494;28;20378;-74
2022/11/09 10:19:29;;;;;;;13.85;2.10;;;;;;;14.20;100.00;100857.31;5164623;28;20501;-74
2022/11/09 10:22:15;;;;;;;12.82;2.00;;;;;;;14.07;100.00;100867.97;5163212;28;20148;-73
2022/11/09 10:25:02;;;;;;;10.82;2.88;;;;;;;14.36;100.00;100874.34;5163847;28;20010;-74
2022/11/09 10:27:35;;;;;;;10.70;2.55;;;;;;;14.48;100.00;100875.53;5151182;28;20025;-74
2022/11/09 10:30:14;;;;;;;12.02;2.30;;;;;;;14.30;100.00;100885.88;5164413;28;20478;-74
2022/11/09 10:32:53;;;;;;;15.00;3.45;;;;;;;14.19;100.00;100890.72;5152689;28;20405;-74
2022/11/09 10:35:41;;;;;;;11.32;2.17;;;;;;;14.11;100.00;100893.56;5164734;28;20482;-74
2022/11/09 10:38:19;;;;;;;11.35;1.88;;;;;;;14.00;100.00;100902.94;5151833;28;20023;-74
2022/11/09 10:40:59;;;;;;;14.45;2.47;;;;;;;14.04;100.00;100891.78;5163813;28;20026;-74
2022/11/09 10:43:30;;;;;;;9.80;1.90;;;;;;;14.01;100.00;100893.00;5164147;28;20026;-74
2022/11/09 10:46:04;;;;;;;14.57;2.13;;;;;;;14.00;100.00;100884.06;5164189;28;20030;-73
2022/11/09 10:48:37;;;;;;;11.27;1.75;;;;;;;13.79;100.00;100883.16;5164101;28;20054;-74
2022/11/09 10:51:31;;;;;;;13.90;2.10;;;;;;;13.61;100.00;100891.63;5163370;28;20030;-73
2022/11/09 10:54:18;;;;;;;9.15;2.05;;;;;;;13.87;100.00;100904.63;5164115;28;20031;-74
2022/11/09 10:57:03;;;;;;;8.13;2.28;;;;;;;14.09;100.00;100911.78;5164744;28;20031;-74
2022/11/09 10:59:36;;;;;;;10.70;1.92;;;;;;;14.07;100.00;100892.25;5153495;28;20415;-73
2022/11/09 11:02:25;;;;;;;10.38;1.85;;;;;;;14.04;100.00;100895.31;5164411;28;20038;-73
2022/11/09 11:05:02;;;;;;;6.68;1.70;;;;;;;14.27;100.00;100897.06;5163448;28;20061;-74
2022/11/09 11:07:34;;;;;;;14.25;2.95;;;;;;;14.59;100.00;100907.44;5163059;28;20073;-74
2022/11/09 11:10:13;;;;;;;10.98;2.22;;;;;;;14.69;100.00;100902.53;5162353;28;20069;-74
2022/11/09 11:12:56;;;;;;;14.65;2.42;;;;;;;14.66;100.00;100894.00;5163416;28;20113;-74
2022/11/09 11:15:41;;;;;;;12.38;1.80;;;;;;;14.68;100.00;100900.06;5163398;28;20015;-74
2022/11/09 11:18:23;;;;;;;10.63;1.73;;;;;;;14.56;100.00;100904.25;5162607;28;20033;-74
2022/11/09 11:21:10;;;;;;;9.82;2.22;;;;;;;14.44;100.00;100902.03;5163571;28;20485;-74
2022/11/09 11:23:41;;;;;;;18.58;2.15;;;;;;;14.40;100.00;100895.34;5151470;28;20312;-73
2022/11/09 11:26:19;;;;;;;12.40;2.63;;;;;;;14.36;100.00;100906.72;5171399;28;20051;-73
2022/11/09 11:28:57;;;;;;;7.57;1.73;;;;;;;14.46;100.00;100893.78;5154088;28;20022;-73
2022/11/09 11:31:28;;;;;;;11.02;1.80;;;;;;;14.36;100.00;100907.56;5159217;28;20078;-73
2022/11/09 11:34:00;;;;;;;12.85;1.95;;;;;;;14.30;100.00;100904.75;5156129;28;20034;-74
2022/11/09 11:36:54;;;;;;;11.63;1.80;;;;;;;14.25;100.00;100914.25;5163804;28;20385;-74
2022/11/09 11:39:33;;;;;;;6.57;1.70;;;;;;;14.14;100.00;100909.34;5163129;28;20069;-73